South Hills, Pennsylvania
Current Conditions -  °F | °C
As of 6:53 AM on Sunday 23 Nov 2014 (Local Time) from KAGC Reporting Station
Overcast Overcast  
Wind Chill: 43°   Ceiling: 6500
Heat Index: 47°   Visibility: 10mi
Dew Point: 22°   Wind: 8mph
Humidity: 37%   Direction: 160°SSE
Pressure: 30.09"   Gusts: NA
Location:  40.4037°N, 80.0349°W
Report Text: KAGC 231153Z AUTO 16007KT 10SM OVC065 08/M06 A3009 RMK AO2 SLP199 60000 70002 T00831056 10089 20072 52000 TSNO
Loading
Personal Weather Stations






























Interactive Weather Map New forecast layout! Learn more

10-Day Weather Forecast

Advertisements
Track Severe Weather on mobile